createdAt,value
2018-04-17T00:02:38.591Z,55.17
2018-04-17T00:07:41.131Z,58.90
2018-04-17T00:12:43.662Z,57.67
2018-04-17T00:17:47.610Z,53.40
2018-04-17T00:22:50.233Z,54.97
2018-04-17T00:27:52.715Z,55.17
2018-04-17T00:32:57.186Z,49.47
2018-04-17T00:37:59.697Z,52.80
2018-04-17T00:43:02.203Z,55.70
2018-04-17T00:48:06.225Z,57.37
2018-04-17T00:53:23.223Z,56.03
2018-04-17T00:58:25.724Z,55.77
2018-04-17T01:03:28.244Z,56.53
2018-04-17T01:08:30.756Z,59.60
2018-04-17T01:13:33.225Z,59.13
2018-04-17T01:18:43.069Z,59.60
2018-04-17T01:23:45.795Z,59.20
2018-04-17T01:28:48.305Z,59.33
2018-04-17T01:33:51.300Z,58.30
2018-04-17T01:38:53.855Z,61.13
2018-04-17T01:43:56.389Z,64.40
2018-04-17T01:48:58.866Z,63.07
2018-04-17T01:54:01.360Z,68.23
2018-04-17T01:59:04.094Z,66.23
2018-04-17T02:04:06.623Z,63.27
2018-04-17T02:09:09.341Z,66.63
2018-04-17T02:14:11.842Z,68.50
2018-04-17T02:19:14.329Z,75.13
2018-04-17T02:24:16.927Z,77.43
2018-04-17T02:29:19.428Z,75.67
2018-04-17T02:34:21.926Z,83.50
2018-04-17T02:39:24.429Z,75.37
2018-04-17T02:44:27.010Z,63.17
2018-04-17T02:49:29.464Z,64.00
2018-04-17T02:54:31.943Z,59.70
2018-04-17T02:59:34.664Z,55.90
2018-04-17T03:04:37.342Z,58.10
2018-04-17T03:09:39.973Z,51.63
2018-04-17T03:14:47.746Z,56.20
2018-04-17T03:19:52.578Z,52.07
2018-04-17T03:24:55.089Z,53.17
2018-04-17T03:29:57.586Z,54.57
2018-04-17T03:35:00.197Z,50.63
2018-04-17T03:40:02.700Z,55.17
2018-04-17T03:45:06.465Z,60.73
2018-04-17T03:50:09.051Z,56.43
2018-04-17T03:55:11.633Z,52.10
2018-04-17T04:00:14.414Z,50.53
2018-04-17T04:05:16.903Z,47.60
2018-04-17T04:10:19.351Z,44.10
2018-04-17T04:15:21.846Z,46.60
2018-04-17T04:20:36.653Z,41.73
2018-04-17T04:25:54.892Z,46.63
2018-04-17T04:31:01.341Z,47.67
2018-04-17T04:36:06.588Z,45.83
2018-04-17T04:41:09.135Z,46.70
2018-04-17T04:46:12.278Z,47.60
2018-04-17T04:51:14.743Z,48.67
2018-04-17T04:56:17.210Z,48.57
2018-04-17T05:01:19.800Z,55.57
2018-04-17T05:06:22.468Z,63.37
2018-04-17T05:11:24.948Z,65.00
2018-04-17T05:16:27.417Z,80.20
2018-04-17T05:21:29.902Z,54.13
2018-04-17T05:26:32.391Z,53.63
2018-04-17T05:31:34.986Z,51.67
2018-04-17T05:36:37.521Z,49.73
2018-04-17T05:41:40.027Z,60.13
2018-04-17T05:46:42.503Z,61.87
2018-04-17T05:51:44.981Z,50.50
2018-04-17T05:56:47.460Z,53.27
2018-04-17T06:01:49.958Z,45.57
2018-04-17T06:06:52.651Z,44.10
2018-04-17T06:11:55.141Z,43.00
2018-04-17T06:16:57.717Z,45.43
2018-04-17T06:22:00.397Z,44.77
2018-04-17T06:27:02.874Z,38.33
2018-04-17T06:32:05.566Z,38.77
2018-04-17T06:37:08.085Z,39.87
2018-04-17T06:42:10.772Z,38.67
2018-04-17T06:47:13.233Z,35.60
2018-04-17T06:52:15.728Z,36.53
2018-04-17T06:57:18.205Z,35.47
2018-04-17T07:02:20.687Z,34.93
2018-04-17T07:07:23.166Z,34.80
2018-04-17T07:12:25.641Z,32.87
2018-04-17T07:17:28.237Z,33.57
2018-04-17T07:22:30.796Z,32.87
2018-04-17T07:27:33.637Z,33.40
2018-04-17T07:32:36.143Z,33.03
2018-04-17T07:37:38.628Z,30.07
2018-04-17T07:42:41.126Z,30.67
2018-04-17T07:53:22.754Z,25.20
2018-04-17T07:58:25.224Z,25.03
2018-04-17T08:03:27.726Z,24.53
2018-04-17T08:08:30.202Z,19.47
2018-04-17T08:13:32.678Z,20.30
2018-04-17T08:18:35.171Z,14.07
2018-04-17T08:23:37.821Z,11.27
2018-04-17T08:28:40.288Z,12.60
2018-04-17T08:33:42.771Z,12.37
2018-04-17T08:38:45.248Z,10.63
2018-04-17T08:43:47.700Z,7.80
2018-04-17T08:48:50.235Z,6.13
2018-04-17T08:53:52.679Z,5.97
2018-04-17T08:58:55.162Z,6.20
2018-04-17T09:03:57.618Z,6.20
2018-04-17T09:09:00.119Z,6.13
2018-04-17T09:14:02.591Z,4.17
2018-04-17T09:19:05.055Z,3.30
2018-04-17T09:24:07.529Z,3.10
2018-04-17T09:29:09.994Z,2.57
2018-04-17T09:34:12.526Z,2.70
2018-04-17T09:39:15.106Z,3.30
2018-04-17T09:44:17.651Z,3.13
2018-04-17T09:49:20.104Z,3.03
2018-04-17T09:54:22.569Z,3.50
2018-04-17T09:59:25.066Z,3.23
2018-04-17T10:04:27.557Z,3.67
2018-04-17T10:09:30.067Z,4.17
2018-04-17T10:14:32.551Z,3.80
2018-04-17T10:19:35.016Z,4.27
2018-04-17T10:24:37.562Z,4.33
2018-04-17T10:29:40.036Z,4.43
2018-04-17T10:34:42.520Z,4.20
2018-04-17T10:39:44.991Z,5.30
2018-04-17T10:44:47.468Z,4.33
2018-04-17T10:49:49.930Z,4.93
2018-04-17T10:54:52.432Z,5.03
2018-04-17T10:59:54.893Z,4.20
2018-04-17T11:04:57.394Z,4.87
2018-04-17T11:09:59.860Z,5.07
2018-04-17T11:15:02.351Z,4.40
2018-04-17T11:20:04.822Z,4.10
2018-04-17T11:25:07.431Z,4.37
2018-04-17T11:30:09.883Z,3.80
2018-04-17T11:35:12.349Z,4.27
2018-04-17T11:40:14.817Z,4.33
2018-04-17T11:45:17.304Z,4.27
2018-04-17T11:50:19.766Z,4.00
2018-04-17T11:55:22.262Z,4.67
2018-04-17T12:00:24.820Z,4.00
2018-04-17T12:05:27.321Z,4.00
2018-04-17T12:10:29.797Z,3.60
2018-04-17T12:15:32.292Z,3.47
2018-04-17T12:20:34.764Z,3.47
2018-04-17T12:25:37.233Z,3.50
2018-04-17T12:30:39.719Z,3.67
2018-04-17T12:35:42.271Z,3.37
2018-04-17T12:40:44.811Z,3.67
2018-04-17T12:45:47.276Z,3.73
2018-04-17T12:50:49.758Z,3.80
2018-04-17T12:55:52.307Z,4.23
2018-04-17T13:00:54.837Z,4.20
2018-04-17T13:05:57.326Z,3.67
2018-04-17T13:10:59.778Z,3.70
2018-04-17T13:16:02.248Z,3.30
2018-04-17T13:21:04.752Z,3.60
2018-04-17T13:26:07.269Z,3.63
2018-04-17T13:31:09.752Z,3.20
2018-04-17T13:36:12.247Z,3.60
2018-04-17T13:41:14.719Z,3.00
2018-04-17T13:46:17.215Z,3.13
2018-04-17T13:51:19.792Z,3.37
2018-04-17T13:56:22.284Z,3.00
2018-04-17T14:01:24.753Z,2.83
2018-04-17T14:06:27.199Z,3.40
2018-04-17T14:11:29.659Z,2.90
2018-04-17T14:16:32.118Z,2.43
2018-04-17T14:21:34.594Z,2.67
2018-04-17T14:26:37.089Z,2.60
2018-04-17T14:31:39.575Z,2.60
2018-04-17T14:36:42.046Z,2.90
2018-04-17T14:41:44.527Z,2.73
2018-04-17T14:46:47.015Z,3.73
2018-04-17T14:51:49.486Z,3.07
2018-04-17T14:56:51.932Z,3.27
2018-04-17T15:01:54.501Z,3.13
2018-04-17T15:06:56.958Z,2.40
2018-04-17T15:11:59.421Z,3.00
2018-04-17T15:17:01.906Z,2.90
2018-04-17T15:22:04.462Z,3.47
2018-04-17T15:27:06.942Z,2.53
2018-04-17T15:32:09.450Z,2.67
2018-04-17T15:37:11.958Z,2.67
2018-04-17T15:42:14.451Z,2.70
2018-04-17T15:47:16.930Z,2.53
2018-04-17T15:52:19.406Z,2.90
2018-04-17T15:57:21.878Z,2.50
2018-04-17T16:02:24.324Z,2.97
2018-04-17T16:07:26.817Z,2.80
2018-04-17T16:12:29.307Z,2.63
2018-04-17T16:17:31.777Z,2.33
2018-04-17T16:22:34.289Z,2.70
2018-04-17T16:27:36.837Z,3.00
2018-04-17T16:32:39.329Z,2.97
2018-04-17T16:37:41.785Z,2.20
2018-04-17T16:42:44.292Z,2.30
2018-04-17T16:47:46.752Z,2.37
2018-04-17T16:52:49.240Z,3.03
2018-04-17T16:57:51.779Z,3.03
2018-04-17T17:02:54.240Z,2.30
2018-04-17T17:07:56.730Z,2.40
2018-04-17T17:12:59.215Z,2.73
2018-04-17T17:18:01.690Z,3.33
2018-04-17T17:28:30.008Z,2.90
2018-04-17T17:33:32.508Z,3.23
2018-04-17T17:38:34.994Z,2.57
2018-04-17T17:43:37.530Z,2.80
2018-04-17T17:48:40.967Z,2.80
2018-04-17T17:53:43.443Z,3.50
2018-04-17T17:58:45.986Z,3.13
2018-04-17T18:03:48.485Z,3.03
2018-04-17T18:08:51.020Z,3.43
2018-04-17T18:13:53.508Z,3.63
2018-04-17T18:18:57.126Z,3.73
2018-04-17T18:24:04.730Z,3.77
2018-04-17T18:29:07.243Z,3.40
2018-04-17T18:34:09.792Z,2.30
2018-04-17T18:39:12.266Z,2.80
2018-04-17T18:44:17.029Z,3.03
2018-04-17T18:49:19.500Z,3.00
2018-04-17T18:54:21.976Z,4.50
2018-04-17T18:59:24.433Z,3.13
2018-04-17T19:04:26.885Z,3.00
2018-04-17T19:09:29.370Z,3.20
2018-04-17T19:14:33.662Z,2.83
2018-04-17T19:19:38.821Z,2.77
2018-04-17T19:24:42.514Z,2.80
2018-04-17T19:29:46.705Z,3.73
2018-04-17T19:34:49.273Z,4.83
2018-04-17T19:39:51.924Z,3.03
2018-04-17T19:44:54.444Z,3.33
2018-04-17T19:49:57.307Z,3.70
2018-04-17T19:54:59.968Z,4.17
2018-04-17T20:00:02.546Z,3.70
2018-04-17T20:05:05.242Z,4.47
2018-04-17T20:10:10.049Z,4.03
2018-04-17T20:15:17.425Z,3.80
2018-04-17T20:20:20.163Z,3.97
2018-04-17T20:25:23.067Z,3.40
2018-04-17T20:30:25.735Z,3.70
2018-04-17T20:35:29.567Z,4.17
2018-04-17T20:40:32.110Z,3.53
2018-04-17T20:45:34.596Z,3.63
2018-04-17T20:50:37.625Z,4.53
2018-04-17T20:55:40.170Z,4.90
2018-04-17T21:00:42.680Z,4.63
2018-04-17T21:05:45.370Z,5.60
2018-04-17T21:10:47.909Z,5.63
2018-04-17T21:15:50.699Z,4.60
2018-04-17T21:20:53.242Z,4.77
2018-04-17T21:25:56.856Z,4.03
2018-04-17T21:30:59.355Z,4.10
2018-04-17T21:36:01.849Z,4.97
2018-04-17T21:41:04.677Z,4.57
2018-04-17T21:46:07.264Z,5.53
2018-04-17T21:56:52.715Z,5.83
2018-04-17T22:07:42.436Z,5.50
2018-04-17T22:19:04.535Z,6.10
2018-04-17T22:24:32.055Z,5.83
2018-04-17T22:29:51.643Z,4.87
2018-04-17T22:34:55.351Z,6.33
2018-04-17T22:39:57.857Z,6.00
2018-04-17T22:45:17.413Z,5.53
2018-04-17T22:50:20.427Z,5.57
2018-04-17T22:55:22.898Z,5.63
2018-04-17T23:00:25.365Z,5.53
2018-04-17T23:05:27.831Z,5.53
2018-04-17T23:10:30.299Z,5.13
2018-04-17T23:15:32.762Z,6.80
2018-04-17T23:20:35.322Z,7.63
2018-04-17T23:25:37.851Z,7.13
2018-04-17T23:30:40.423Z,7.63
2018-04-17T23:35:42.945Z,6.03
2018-04-17T23:40:46.591Z,6.47
2018-04-17T23:45:49.170Z,7.53
2018-04-17T23:50:51.626Z,6.63
2018-04-17T23:55:54.096Z,8.27
